createdAt,value
2023-03-11T00:00:58.146Z,99.90
2023-03-11T00:03:27.786Z,99.90
2023-03-11T00:05:56.695Z,99.90
2023-03-11T00:08:25.351Z,99.90
2023-03-11T00:10:55.631Z,99.90
2023-03-11T00:13:23.979Z,99.90
2023-03-11T00:15:56.377Z,99.90
2023-03-11T00:18:28.200Z,99.90
2023-03-11T00:20:57.276Z,99.90
2023-03-11T00:23:26.748Z,99.90
2023-03-11T00:25:56.055Z,99.90
2023-03-11T00:28:26.166Z,99.90
2023-03-11T00:30:54.589Z,99.90
2023-03-11T00:33:22.607Z,99.90
2023-03-11T00:35:50.962Z,99.90
2023-03-11T00:38:21.675Z,99.90
2023-03-11T00:40:50.783Z,99.90
2023-03-11T00:43:18.862Z,99.90
2023-03-11T00:45:47.272Z,99.90
2023-03-11T00:48:16.242Z,99.90
2023-03-11T00:50:44.587Z,99.90
2023-03-11T00:53:13.577Z,99.90
2023-03-11T00:55:41.822Z,99.90
2023-03-11T00:58:12.993Z,99.90
2023-03-11T01:00:47.872Z,99.90
2023-03-11T01:03:15.767Z,99.90
2023-03-11T01:05:45.849Z,99.90
2023-03-11T01:08:14.290Z,99.90
2023-03-11T01:10:42.286Z,99.90
2023-03-11T01:13:10.248Z,99.90
2023-03-11T01:15:38.572Z,99.90
2023-03-11T01:18:07.613Z,99.90
2023-03-11T01:20:37.293Z,99.90
2023-03-11T01:23:07.379Z,99.90
2023-03-11T01:25:36.175Z,99.90
2023-03-11T01:28:05.061Z,99.90
2023-03-11T01:30:33.096Z,99.90
2023-03-11T01:33:01.805Z,99.90
2023-03-11T01:35:31.411Z,99.90
2023-03-11T01:38:00.326Z,99.90
2023-03-11T01:40:36.385Z,99.90
2023-03-11T01:43:40.807Z,99.90
2023-03-11T01:46:24.736Z,99.90
2023-03-11T01:48:55.930Z,99.90
2023-03-11T01:51:29.884Z,99.90
2023-03-11T01:54:03.008Z,99.90
2023-03-11T01:56:32.044Z,99.90
2023-03-11T01:59:00.959Z,99.90
2023-03-11T02:01:29.777Z,99.90
2023-03-11T02:03:59.996Z,99.90
2023-03-11T02:06:28.683Z,99.90
2023-03-11T02:08:57.023Z,99.90
2023-03-11T02:11:29.342Z,99.90
2023-03-11T02:14:02.895Z,99.90
2023-03-11T02:16:31.517Z,99.90
2023-03-11T02:19:14.970Z,99.90
2023-03-11T02:21:43.450Z,99.90
2023-03-11T02:24:26.588Z,99.90
2023-03-11T02:26:54.751Z,99.90
2023-03-11T02:29:25.127Z,99.90
2023-03-11T02:31:53.892Z,99.90
2023-03-11T02:34:26.090Z,99.90
2023-03-11T02:36:54.178Z,99.90
2023-03-11T02:39:37.624Z,99.90
2023-03-11T02:42:38.500Z,99.90
2023-03-11T02:45:14.037Z,99.90
2023-03-11T02:47:42.137Z,99.90
2023-03-11T02:50:15.460Z,99.90
2023-03-11T02:52:43.740Z,99.90
2023-03-11T02:55:12.132Z,99.90
2023-03-11T02:57:41.122Z,99.90
2023-03-11T03:00:15.162Z,99.90
2023-03-11T03:02:52.464Z,99.90
2023-03-11T03:05:23.316Z,99.90
2023-03-11T03:07:52.552Z,99.90
2023-03-11T03:10:22.410Z,99.90
2023-03-11T03:12:50.619Z,99.90
2023-03-11T03:15:19.134Z,99.90
2023-03-11T03:17:48.197Z,99.90
2023-03-11T03:20:16.834Z,99.90
2023-03-11T03:22:50.656Z,99.90
2023-03-11T03:25:22.858Z,99.90
2023-03-11T03:27:51.025Z,99.90
2023-03-11T03:30:20.480Z,99.90
2023-03-11T03:32:49.084Z,99.90
2023-03-11T03:35:19.317Z,99.90
2023-03-11T03:38:19.327Z,99.90
2023-03-11T03:40:49.161Z,99.90
2023-03-11T03:43:21.562Z,99.90
2023-03-11T03:45:59.619Z,99.90
2023-03-11T03:48:31.495Z,99.90
2023-03-11T03:51:07.980Z,99.90
2023-03-11T03:53:37.861Z,99.90
2023-03-11T03:56:11.988Z,99.90
2023-03-11T03:58:40.395Z,99.90
2023-03-11T04:01:10.352Z,99.90
2023-03-11T04:03:39.664Z,99.90
2023-03-11T04:06:20.810Z,99.90
2023-03-11T04:08:54.633Z,99.90
2023-03-11T04:11:28.179Z,99.90
2023-03-11T04:13:57.019Z,99.90
2023-03-11T04:16:26.002Z,99.90
2023-03-11T04:19:00.286Z,99.90
2023-03-11T04:21:29.605Z,99.90
2023-03-11T04:23:58.427Z,99.90
2023-03-11T04:26:31.517Z,99.90
2023-03-11T04:29:00.285Z,99.90
2023-03-11T04:31:32.597Z,99.90
2023-03-11T04:34:04.353Z,99.90
2023-03-11T04:36:32.485Z,99.90
2023-03-11T04:39:01.190Z,99.90
2023-03-11T04:41:32.965Z,99.90
2023-03-11T04:44:01.546Z,99.90
2023-03-11T04:46:30.248Z,99.90
2023-03-11T04:49:00.409Z,99.90
2023-03-11T04:51:29.326Z,99.90
2023-03-11T04:53:58.141Z,99.90
2023-03-11T04:56:29.028Z,99.90
2023-03-11T04:58:57.109Z,99.90
2023-03-11T05:01:27.538Z,99.90
2023-03-11T05:03:57.564Z,99.90
2023-03-11T05:06:25.588Z,99.90
2023-03-11T05:08:54.036Z,99.90
2023-03-11T05:11:22.787Z,99.90
2023-03-11T05:13:50.815Z,99.90
2023-03-11T05:16:20.105Z,99.90
2023-03-11T05:18:48.484Z,99.90
2023-03-11T05:21:18.018Z,99.90
2023-03-11T05:23:45.938Z,99.90
2023-03-11T05:26:15.687Z,99.90
2023-03-11T05:28:46.560Z,99.90
2023-03-11T05:31:14.731Z,99.90
2023-03-11T05:33:42.848Z,99.90
2023-03-11T05:36:14.218Z,99.90
2023-03-11T05:38:44.773Z,99.90
2023-03-11T05:41:14.462Z,99.90
2023-03-11T05:43:44.274Z,99.90
2023-03-11T05:46:13.352Z,99.90
2023-03-11T05:48:41.846Z,99.90
2023-03-11T05:51:11.607Z,99.90
2023-03-11T05:53:48.811Z,99.90
2023-03-11T05:56:24.420Z,99.90
2023-03-11T05:58:57.714Z,99.90
2023-03-11T06:01:27.107Z,99.90
2023-03-11T06:03:55.203Z,99.90
2023-03-11T06:06:23.992Z,99.90
2023-03-11T06:08:52.693Z,99.90
2023-03-11T06:11:25.720Z,99.90
2023-03-11T06:13:55.804Z,99.90
2023-03-11T06:16:29.359Z,99.90
2023-03-11T06:19:01.179Z,99.90
2023-03-11T06:21:33.092Z,99.90
2023-03-11T06:24:01.709Z,99.90
2023-03-11T06:26:31.670Z,99.90
2023-03-11T06:28:59.868Z,99.90
2023-03-11T06:31:29.706Z,99.90
2023-03-11T06:34:05.569Z,99.90
2023-03-11T06:36:33.913Z,99.90
2023-03-11T06:39:02.274Z,99.90
2023-03-11T06:41:32.932Z,99.90
2023-03-11T06:44:01.655Z,99.90
2023-03-11T06:46:30.140Z,99.90
2023-03-11T06:48:59.169Z,99.90
2023-03-11T06:51:28.256Z,99.90
2023-03-11T06:53:58.848Z,99.90
2023-03-11T06:56:28.252Z,99.90
2023-03-11T06:59:01.770Z,99.90
2023-03-11T07:01:33.061Z,99.90
2023-03-11T07:04:04.003Z,99.90
2023-03-11T07:06:33.165Z,99.90
2023-03-11T07:09:09.332Z,99.90
2023-03-11T07:11:41.598Z,99.90
2023-03-11T07:14:15.096Z,99.90
2023-03-11T07:16:47.977Z,99.90
2023-03-11T07:19:26.637Z,99.90
2023-03-11T07:21:55.122Z,99.90
2023-03-11T07:24:23.207Z,99.90
2023-03-11T07:26:51.386Z,99.90
2023-03-11T07:29:20.989Z,99.90
2023-03-11T07:31:49.632Z,99.90
2023-03-11T07:34:17.671Z,99.90
2023-03-11T07:36:45.649Z,99.90
2023-03-11T07:39:18.023Z,99.90
2023-03-11T07:41:46.542Z,99.90
2023-03-11T07:44:15.911Z,99.90
2023-03-11T07:46:44.748Z,99.90
2023-03-11T07:49:13.976Z,99.90
2023-03-11T07:51:43.924Z,99.90
2023-03-11T07:54:13.200Z,99.90
2023-03-11T07:56:41.650Z,99.90
2023-03-11T07:59:10.201Z,99.90
2023-03-11T08:01:41.218Z,99.90
2023-03-11T08:04:14.375Z,99.90
2023-03-11T08:06:44.598Z,99.90
2023-03-11T08:09:13.572Z,99.90
2023-03-11T08:11:41.774Z,99.90
2023-03-11T08:14:10.622Z,99.90
2023-03-11T08:16:41.407Z,99.90
2023-03-11T08:19:12.969Z,99.90
2023-03-11T08:21:41.355Z,99.90
2023-03-11T08:24:12.901Z,99.90
2023-03-11T08:26:41.759Z,99.90
2023-03-11T08:29:10.254Z,99.90
2023-03-11T08:31:38.711Z,99.90
2023-03-11T08:34:09.399Z,99.90
2023-03-11T08:36:38.185Z,99.90
2023-03-11T08:39:07.078Z,99.90
2023-03-11T08:41:35.771Z,99.90
2023-03-11T08:44:04.343Z,99.90
2023-03-11T08:46:38.273Z,99.90
2023-03-11T08:49:06.710Z,99.90
2023-03-11T08:51:35.733Z,99.90
2023-03-11T08:54:04.891Z,99.90
2023-03-11T08:56:33.006Z,99.90
2023-03-11T08:59:01.656Z,99.90
2023-03-11T09:01:30.253Z,99.90
2023-03-11T09:03:58.456Z,99.90
2023-03-11T09:06:26.670Z,99.90
2023-03-11T09:08:54.680Z,99.90
2023-03-11T09:11:23.351Z,99.90
2023-03-11T09:13:51.651Z,99.90
2023-03-11T09:16:23.450Z,99.90
2023-03-11T09:18:52.097Z,99.90
2023-03-11T09:21:20.478Z,99.90
2023-03-11T09:23:48.794Z,99.90
2023-03-11T09:26:17.321Z,99.90
2023-03-11T09:28:49.168Z,99.90
2023-03-11T09:31:18.279Z,99.90
2023-03-11T09:33:47.236Z,99.90
2023-03-11T09:36:17.494Z,99.90
2023-03-11T09:38:45.715Z,99.90
2023-03-11T09:41:29.324Z,99.90
2023-03-11T09:44:23.773Z,99.90
2023-03-11T09:47:06.376Z,99.90
2023-03-11T09:50:08.606Z,99.90
2023-03-11T09:53:15.485Z,99.90
2023-03-11T09:56:04.633Z,99.90
2023-03-11T09:59:04.294Z,99.90
2023-03-11T10:01:40.556Z,99.90
2023-03-11T10:04:17.596Z,99.90
2023-03-11T10:06:48.123Z,99.90
2023-03-11T10:09:34.953Z,99.90
2023-03-11T10:12:34.239Z,99.90
2023-03-11T10:15:34.378Z,99.90
2023-03-11T10:18:05.827Z,99.90
2023-03-11T10:20:43.384Z,99.90
2023-03-11T10:23:43.626Z,99.90
2023-03-11T10:26:11.993Z,99.90
2023-03-11T10:28:46.791Z,99.90
2023-03-11T10:31:44.091Z,99.90
2023-03-11T10:34:18.398Z,99.90
2023-03-11T10:37:04.409Z,99.90
2023-03-11T10:39:33.713Z,99.90
2023-03-11T10:42:05.207Z,99.90
2023-03-11T10:44:41.699Z,99.90
2023-03-11T10:47:21.776Z,99.90
2023-03-11T10:49:50.494Z,99.90
2023-03-11T10:52:20.007Z,99.90
2023-03-11T10:55:00.544Z,99.90
2023-03-11T10:57:33.467Z,99.90
2023-03-11T11:00:12.746Z,99.90
2023-03-11T11:02:50.318Z,99.90
2023-03-11T11:05:18.214Z,99.90
2023-03-11T11:07:51.152Z,99.90
2023-03-11T11:10:21.286Z,99.90
2023-03-11T11:12:56.087Z,99.90
2023-03-11T11:15:33.410Z,99.90
2023-03-11T11:18:07.485Z,99.90
2023-03-11T11:20:40.118Z,99.90
2023-03-11T11:23:45.404Z,99.90
2023-03-11T11:26:24.970Z,99.90
2023-03-11T11:29:09.119Z,67.80
2023-03-11T11:31:47.493Z,1.30
2023-03-11T11:34:31.612Z,3.80
2023-03-11T11:37:04.905Z,1.00
2023-03-11T11:39:42.965Z,1.00
2023-03-11T11:42:15.267Z,1.00
2023-03-11T11:44:43.911Z,14.80
2023-03-11T11:47:21.929Z,73.50
2023-03-11T11:49:55.816Z,60.40
2023-03-11T11:52:45.186Z,93.30
2023-03-11T11:55:24.182Z,99.90
2023-03-11T11:57:53.060Z,97.00
2023-03-11T12:00:25.937Z,99.90
2023-03-11T12:03:16.187Z,99.90
2023-03-11T12:05:58.257Z,99.90
2023-03-11T12:08:48.134Z,99.90
2023-03-11T12:11:52.815Z,99.90
2023-03-11T12:14:31.019Z,99.90
2023-03-11T12:17:03.879Z,99.90
2023-03-11T12:19:35.249Z,99.90
2023-03-11T12:22:53.945Z,99.90
2023-03-11T12:25:32.769Z,99.90
2023-03-11T12:28:10.621Z,96.50
2023-03-11T12:30:48.385Z,99.90
2023-03-11T12:33:33.739Z,94.00
2023-03-11T12:36:03.916Z,99.90
2023-03-11T12:38:40.805Z,99.90
2023-03-11T12:41:15.025Z,99.90
2023-03-11T12:43:43.330Z,99.90
2023-03-11T12:46:14.425Z,99.90
2023-03-11T12:48:45.640Z,99.90
2023-03-11T12:52:00.188Z,97.70
2023-03-11T12:54:32.775Z,99.90
2023-03-11T12:57:05.747Z,99.90
2023-03-11T13:00:18.092Z,99.90
2023-03-11T13:03:16.811Z,95.50
2023-03-11T13:05:57.975Z,92.10
2023-03-11T13:08:46.254Z,98.60
2023-03-11T13:11:34.507Z,99.60
2023-03-11T13:14:32.316Z,92.80
2023-03-11T13:17:26.846Z,90.90
2023-03-11T13:19:57.165Z,88.10
2023-03-11T13:22:52.366Z,50.50
2023-03-11T13:25:31.214Z,97.30
2023-03-11T13:28:08.686Z,97.10
2023-03-11T13:30:44.969Z,73.80
2023-03-11T13:33:30.702Z,99.90
2023-03-11T13:36:49.843Z,88.90
2023-03-11T13:39:44.492Z,97.70
2023-03-11T13:42:27.737Z,93.30
2023-03-11T13:44:56.331Z,53.10
2023-03-11T13:47:25.112Z,68.70
2023-03-11T13:50:07.811Z,47.10
2023-03-11T13:52:47.653Z,27.80
2023-03-11T13:55:40.477Z,42.00
2023-03-11T13:58:35.092Z,23.60
2023-03-11T14:01:03.204Z,18.10
2023-03-11T14:03:41.097Z,1.00
2023-03-11T14:06:19.287Z,1.00
2023-03-11T14:08:55.654Z,1.00
2023-03-11T14:11:30.114Z,1.00
2023-03-11T14:13:58.666Z,8.80
2023-03-11T14:16:44.476Z,1.00
2023-03-11T14:19:17.787Z,12.50
2023-03-11T14:21:53.422Z,1.00
2023-03-11T14:24:26.604Z,1.00
2023-03-11T14:26:57.197Z,1.00
2023-03-11T14:29:37.507Z,1.00
2023-03-11T14:32:23.840Z,1.00
2023-03-11T14:34:52.938Z,1.00
2023-03-11T14:37:35.364Z,1.00
2023-03-11T14:40:05.116Z,1.00
2023-03-11T14:42:38.532Z,1.00
2023-03-11T14:45:17.464Z,1.00
2023-03-11T14:47:53.269Z,1.00
2023-03-11T14:50:25.928Z,1.00
2023-03-11T14:53:07.902Z,1.00
2023-03-11T14:55:40.630Z,1.00
2023-03-11T14:58:34.724Z,1.00
2023-03-11T15:01:03.054Z,1.00
2023-03-11T15:03:34.844Z,1.00
2023-03-11T15:06:15.685Z,1.00
2023-03-11T15:09:06.920Z,1.00
2023-03-11T15:11:45.839Z,1.00
2023-03-11T15:14:26.587Z,1.00
2023-03-11T15:16:56.275Z,1.00
2023-03-11T15:19:30.432Z,1.00
2023-03-11T15:22:03.145Z,1.00
2023-03-11T15:24:33.947Z,1.00
2023-03-11T15:27:08.404Z,1.00
2023-03-11T15:29:37.311Z,1.00
2023-03-11T15:32:25.931Z,1.00
2023-03-11T15:35:01.712Z,1.00
2023-03-11T15:37:31.834Z,1.00
2023-03-11T15:40:43.951Z,1.00
2023-03-11T15:43:16.977Z,1.00
2023-03-11T15:45:45.707Z,1.00
2023-03-11T15:48:14.701Z,1.00
2023-03-11T15:50:53.411Z,1.00
2023-03-11T15:53:50.510Z,1.00
2023-03-11T15:56:25.899Z,1.00
2023-03-11T15:58:56.906Z,1.00
2023-03-11T16:01:30.142Z,1.00
2023-03-11T16:04:01.645Z,1.00
2023-03-11T16:06:30.376Z,1.00
2023-03-11T16:09:01.672Z,1.00
2023-03-11T16:11:32.795Z,1.00
2023-03-11T16:14:01.317Z,1.00
2023-03-11T16:16:29.334Z,1.00
2023-03-11T16:18:57.826Z,1.00
2023-03-11T16:21:33.974Z,1.00
2023-03-11T16:24:02.443Z,9.10
2023-03-11T16:26:30.881Z,1.00
2023-03-11T16:29:09.092Z,10.70
2023-03-11T16:31:46.205Z,1.00
2023-03-11T16:34:16.307Z,1.00
2023-03-11T16:36:44.705Z,1.00
2023-03-11T16:39:15.529Z,1.00
2023-03-11T16:41:45.277Z,2.20
2023-03-11T16:44:13.725Z,33.10
2023-03-11T16:46:42.388Z,56.20
2023-03-11T16:49:13.395Z,66.90
2023-03-11T16:51:41.334Z,60.60
2023-03-11T16:54:10.117Z,93.30
2023-03-11T16:56:41.760Z,99.90
2023-03-11T16:59:10.045Z,99.90
2023-03-11T17:01:39.214Z,99.90
2023-03-11T17:04:08.453Z,99.90
2023-03-11T17:06:36.511Z,99.90
2023-03-11T17:09:04.940Z,99.90
2023-03-11T17:11:34.499Z,99.90
2023-03-11T17:14:15.551Z,99.90
2023-03-11T17:16:45.545Z,99.90
2023-03-11T17:19:13.963Z,99.90
2023-03-11T17:21:43.144Z,99.90
2023-03-11T17:24:12.647Z,99.90
2023-03-11T17:26:40.639Z,99.90
2023-03-11T17:29:08.807Z,99.90
2023-03-11T17:31:36.866Z,99.90
2023-03-11T17:34:05.809Z,99.90
2023-03-11T17:36:33.932Z,99.90
2023-03-11T17:39:01.983Z,99.90
2023-03-11T17:41:30.152Z,99.90
2023-03-11T17:43:58.637Z,99.90
2023-03-11T17:46:27.223Z,99.90
2023-03-11T17:48:55.489Z,99.90
2023-03-11T17:51:26.317Z,99.90
2023-03-11T17:53:55.846Z,99.90
2023-03-11T17:56:24.782Z,99.90
2023-03-11T17:58:53.756Z,99.90
2023-03-11T18:01:26.442Z,99.90
2023-03-11T18:03:54.998Z,99.90
2023-03-11T18:06:24.030Z,99.90
2023-03-11T18:08:53.398Z,99.90
2023-03-11T18:11:24.039Z,99.90
2023-03-11T18:13:52.730Z,99.90
2023-03-11T18:16:26.182Z,99.90
2023-03-11T18:18:56.953Z,99.90
2023-03-11T18:21:28.554Z,99.90
2023-03-11T18:23:58.800Z,99.90
2023-03-11T18:26:29.499Z,99.90
2023-03-11T18:28:59.802Z,99.90
2023-03-11T18:31:30.132Z,99.90
2023-03-11T18:34:04.348Z,99.90
2023-03-11T18:36:36.010Z,99.90
2023-03-11T18:39:05.181Z,99.90
2023-03-11T18:41:35.476Z,99.90
2023-03-11T18:44:04.211Z,99.90
2023-03-11T18:46:32.755Z,99.90
2023-03-11T18:49:02.509Z,99.90
2023-03-11T18:51:32.387Z,99.90
2023-03-11T18:54:00.787Z,99.90
2023-03-11T18:56:31.267Z,99.90
2023-03-11T18:59:00.288Z,99.90
2023-03-11T19:01:29.238Z,99.90
2023-03-11T19:03:59.244Z,99.90
2023-03-11T19:06:28.512Z,99.90
2023-03-11T19:08:57.924Z,99.90
2023-03-11T19:11:26.844Z,99.90
2023-03-11T19:13:55.838Z,99.90
2023-03-11T19:16:26.355Z,99.90
2023-03-11T19:18:56.037Z,99.90
2023-03-11T19:21:26.057Z,99.90
2023-03-11T19:23:55.452Z,99.90
2023-03-11T19:26:41.509Z,99.90
2023-03-11T19:29:13.664Z,99.90
2023-03-11T19:31:43.913Z,99.90
2023-03-11T19:34:12.156Z,99.90
2023-03-11T19:36:40.764Z,99.90
2023-03-11T19:39:09.552Z,99.90
2023-03-11T19:41:37.597Z,99.90
2023-03-11T19:44:05.827Z,99.90
2023-03-11T19:46:36.139Z,99.90
2023-03-11T19:49:04.739Z,99.90
2023-03-11T19:51:48.574Z,99.90
2023-03-11T19:54:19.140Z,99.90
2023-03-11T19:56:48.273Z,99.90
2023-03-11T19:59:16.942Z,99.90
2023-03-11T20:01:46.156Z,99.90
2023-03-11T20:04:15.333Z,99.90
2023-03-11T20:06:43.994Z,99.90
2023-03-11T20:09:12.782Z,99.90
2023-03-11T20:11:41.082Z,99.90
2023-03-11T20:14:11.089Z,99.90
2023-03-11T20:16:39.331Z,99.90
2023-03-11T20:19:08.410Z,99.90
2023-03-11T20:21:40.789Z,99.90
2023-03-11T20:24:10.111Z,99.90
2023-03-11T20:26:38.819Z,99.90
2023-03-11T20:29:07.869Z,99.90
2023-03-11T20:31:36.655Z,99.90
2023-03-11T20:34:04.881Z,99.90
2023-03-11T20:36:34.212Z,99.90
2023-03-11T20:39:03.092Z,99.90
2023-03-11T20:41:37.604Z,99.90
2023-03-11T20:44:08.156Z,99.90
2023-03-11T20:46:36.624Z,99.90
2023-03-11T20:49:04.743Z,99.90
2023-03-11T20:51:32.986Z,99.90
2023-03-11T20:54:01.114Z,99.90
2023-03-11T20:56:29.422Z,99.90
2023-03-11T20:58:59.496Z,99.90
2023-03-11T21:01:29.954Z,99.90
2023-03-11T21:04:00.985Z,99.90
2023-03-11T21:06:29.111Z,99.90
2023-03-11T21:08:59.550Z,99.90
2023-03-11T21:11:28.332Z,99.90
2023-03-11T21:13:56.469Z,99.90
2023-03-11T21:16:26.956Z,99.90
2023-03-11T21:18:56.023Z,99.90
2023-03-11T21:21:24.742Z,99.90
2023-03-11T21:23:54.226Z,99.90
2023-03-11T21:26:22.308Z,99.90
2023-03-11T21:28:51.201Z,99.90
2023-03-11T21:31:21.966Z,99.90
2023-03-11T21:33:54.614Z,99.90
2023-03-11T21:36:23.205Z,99.90
2023-03-11T21:38:52.166Z,99.90
2023-03-11T21:41:26.003Z,99.90
2023-03-11T21:43:56.172Z,99.90
2023-03-11T21:46:30.999Z,99.90
2023-03-11T21:49:00.088Z,99.90
2023-03-11T21:51:29.215Z,99.90
2023-03-11T21:53:57.649Z,99.90
2023-03-11T21:56:25.812Z,99.90
2023-03-11T21:58:54.251Z,99.90
2023-03-11T22:01:22.414Z,99.90
2023-03-11T22:03:50.872Z,99.90
2023-03-11T22:06:19.152Z,99.90
2023-03-11T22:08:47.294Z,99.90
2023-03-11T22:11:19.051Z,99.90
2023-03-11T22:13:49.123Z,99.90
2023-03-11T22:16:18.255Z,99.90
2023-03-11T22:18:46.820Z,99.90
2023-03-11T22:21:16.377Z,99.90
2023-03-11T22:23:45.603Z,99.90
2023-03-11T22:26:14.829Z,99.90
2023-03-11T22:28:43.146Z,99.90
2023-03-11T22:31:14.835Z,99.90
2023-03-11T22:33:43.015Z,99.90
2023-03-11T22:36:11.467Z,99.90
2023-03-11T22:38:42.040Z,99.90
2023-03-11T22:41:10.317Z,99.90
2023-03-11T22:43:38.878Z,99.90
2023-03-11T22:46:07.252Z,99.90
2023-03-11T22:48:35.890Z,99.90
2023-03-11T22:51:05.003Z,99.90
2023-03-11T22:53:33.161Z,99.90
2023-03-11T22:56:02.273Z,99.90
2023-03-11T22:58:30.624Z,99.90
2023-03-11T23:01:01.176Z,99.90
2023-03-11T23:03:29.842Z,99.90
2023-03-11T23:06:02.502Z,99.90
2023-03-11T23:08:31.073Z,99.90
2023-03-11T23:11:03.446Z,99.90
2023-03-11T23:13:35.723Z,99.90
2023-03-11T23:16:12.416Z,99.90
2023-03-11T23:18:42.703Z,99.90
2023-03-11T23:21:23.059Z,99.90
2023-03-11T23:23:51.369Z,99.90
2023-03-11T23:26:21.195Z,99.90
2023-03-11T23:28:51.251Z,99.90
2023-03-11T23:31:21.992Z,99.90
2023-03-11T23:33:50.630Z,99.90
2023-03-11T23:36:21.922Z,99.90
2023-03-11T23:38:51.069Z,99.90
2023-03-11T23:41:21.324Z,99.90
2023-03-11T23:43:50.445Z,99.90
2023-03-11T23:46:19.144Z,99.90
2023-03-11T23:48:48.228Z,99.90
2023-03-11T23:51:16.335Z,99.90
2023-03-11T23:53:44.272Z,99.90
2023-03-11T23:56:16.052Z,99.90
2023-03-11T23:58:44.713Z,99.90
